Admiralengracht — PCDE — position and weather

sailwx.info

Track history (hours):
 
Tides and Currents Weather Stations Pressure Air Temp Water Temp Dewpoint Dewpoint Depression Visibility Wind Speed Wind Dir Waves Ship Positions

Admiralengracht

Last reported at 2019-Apr-18 08:13 UTC. Time now 2019-Apr-18 20:20 UTC.
Position N 53°36' E 006°24'.

Length 130 m; beam 19 m; draft 9 m.

Type: Ship. MMSI: 244170283.

Date/timePositionNaut miles runAvg speedWind from/ knotsBaromVisibWave heightAir tempDewpointWater temp
2019-Apr-18 08:13N 53°36' E 006°24'1 1.8
2019-Apr-18 07:55N 53°36' E 006°23'7 0.9
2019-Apr-17 23:54N 53°34' E 006°12'6 2.1
2019-Apr-17 21:13N 53°33' E 006°03'2 1.8
2019-Apr-17 19:58N 53°33' E 005°59'1 1.2
2019-Apr-17 19:16N 53°33' E 006°00'0 1.4
2019-Apr-17 18:59N 53°33' E 005°60'0 0.8
2019-Apr-17 18:30N 53°33' E 005°59'3 4.5
2019-Apr-17 17:56N 53°33' E 005°55'3 0.2
2019-Apr-17 04:38N 53°36' E 005°58'4 5.3
2019-Apr-17 03:55N 53°35' E 006°04'10 1.7
2019-Apr-16 22:01N 53°34' E 006°21'0 4.8
2019-Apr-16 21:59N 53°34' E 006°21'1 0.7
2019-Apr-16 20:00N 53°34' E 006°19'2 4.4
2019-Apr-16 19:29N 53°35' E 006°23'13 2.9
2019-Apr-16 14:57N 53°32' E 006°44'4 9.5
2019-Apr-16 14:30N 53°29' E 006°50'2 3.4
2019-Apr-16 14:00N 53°27' E 006°49'0 0.0
2019-Apr-16 13:28N 53°27' E 006°49'0 0.0
2019-Apr-16 12:58N 53°27' E 006°49'0 0.0
2019-Apr-16 12:28N 53°27' E 006°49'0 0.0
2019-Apr-16 11:58N 53°27' E 006°49'0 0.0
2019-Apr-16 11:20N 53°27' E 006°49'0 0.0
2019-Apr-16 10:59N 53°27' E 006°49'0 0.0
2019-Apr-16 10:27N 53°27' E 006°49'0 0.0
2019-Apr-16 10:00N 53°27' E 006°49'0 0.0
2019-Apr-16 09:30N 53°27' E 006°49'0 0.0
2019-Apr-16 09:00N 53°27' E 006°49'0 0.0
2019-Apr-16 08:28N 53°27' E 006°49'0 0.0
2019-Apr-16 07:58N 53°27' E 006°49'0 0.0
2019-Apr-16 07:28N 53°27' E 006°49'0 0.0
2019-Apr-16 06:56N 53°27' E 006°49'0 0.0
2019-Apr-16 06:29N 53°27' E 006°49'  
2019-Apr-12 18:36N 53°34' E 005°50'1 0.7
2019-Apr-12 17:28N 53°33' E 005°51'112 9.5
2019-Apr-12 05:39N 51°53' E 004°27'113 2.3
2019-Apr-10 03:53N 53°33' E 005°54'2 4.0
2019-Apr-10 03:18N 53°32' E 005°50'1 3.9
2019-Apr-10 03:00N 53°32' E 005°48'3 3.6
2019-Apr-10 02:02N 53°31' E 005°43'0 4.2
2019-Apr-10 02:00N 53°31' E 005°43'3 4.6
2019-Apr-10 01:23N 53°32' E 005°47'0 0.6
2019-Apr-10 00:51N 53°32' E 005°48'33 3.7
2019-Apr-09 15:57N 53°32' E 006°43'511.6
2019-Apr-09 15:30N 53°29' E 006°50'2 3.4
2019-Apr-09 14:59N 53°27' E 006°49'0 0.0
2019-Apr-09 14:22N 53°27' E 006°49'0 0.0
2019-Apr-09 13:08N 53°27' E 006°49'0 0.0
2019-Apr-09 12:50N 53°27' E 006°49'0 0.0
2019-Apr-09 11:57N 53°27' E 006°49'0 0.0
2019-Apr-09 11:30N 53°27' E 006°49'0 0.0
2019-Apr-09 10:57N 53°27' E 006°49'0 0.0
2019-Apr-09 09:46N 53°27' E 006°49'0 0.0
2019-Apr-09 09:25N 53°27' E 006°49'0 0.0
2019-Apr-09 08:35N 53°27' E 006°49'0 0.0
2019-Apr-09 08:11N 53°27' E 006°49'0 0.0
2019-Apr-09 07:59N 53°27' E 006°49'0 0.0
2019-Apr-09 07:27N 53°27' E 006°49'0 0.0
2019-Apr-09 06:42N 53°27' E 006°49'0 0.0
2019-Apr-09 06:30N 53°27' E 006°49'0 0.0
2019-Apr-09 06:00N 53°27' E 006°49'1 1.8
2019-Apr-09 05:30N 53°28' E 006°50'3 6.2
2019-Apr-09 05:00N 53°30' E 006°48'27 4.0
2019-Apr-08 22:10N 53°35' E 006°02'7 3.4
2019-Apr-08 20:00N 53°32' E 005°51'2 4.3
2019-Apr-08 19:30N 53°32' E 005°47'3 4.3
2019-Apr-08 18:49N 53°31' E 005°43'0 1.3
2019-Apr-08 18:26N 53°31' E 005°43'3 4.2
2019-Apr-08 17:45N 53°32' E 005°48'5 0.8
2019-Apr-08 12:20N 53°31' E 005°41'4 2.3
2019-Apr-08 10:26N 53°35' E 005°44'0 0.4
2019-Apr-08 09:23N 53°35' E 005°44'0 0.0
2019-Apr-08 09:00N 53°35' E 005°44'1 1.6
2019-Apr-08 08:30N 53°35' E 005°45'  
Track history (hours):
 
Tides and Currents Weather Stations Pressure Air Temp Water Temp Dewpoint Dewpoint Depression Visibility Wind Speed Wind Dir Waves Ship Positions

Admiralengracht

Last reported at 2019-Apr-18 08:13 UTC. Time now 2019-Apr-18 20:20 UTC.
Position N 53°36' E 006°24'.

Length 130 m; beam 19 m; draft 9 m.

Type: Ship. MMSI: 244170283.

Date/timePositionNaut miles runAvg speedWind from/ knotsBaromVisibWave heightAir tempDewpointWater temp
2019-Apr-18 08:13N 53°36' E 006°24'1 1.8
2019-Apr-18 07:55N 53°36' E 006°23'7 0.9
2019-Apr-17 23:54N 53°34' E 006°12'6 2.1
2019-Apr-17 21:13N 53°33' E 006°03'2 1.8
2019-Apr-17 19:58N 53°33' E 005°59'1 1.2
2019-Apr-17 19:16N 53°33' E 006°00'0 1.4
2019-Apr-17 18:59N 53°33' E 005°60'0 0.8
2019-Apr-17 18:30N 53°33' E 005°59'3 4.5
2019-Apr-17 17:56N 53°33' E 005°55'3 0.2
2019-Apr-17 04:38N 53°36' E 005°58'4 5.3
2019-Apr-17 03:55N 53°35' E 006°04'10 1.7
2019-Apr-16 22:01N 53°34' E 006°21'0 4.8
2019-Apr-16 21:59N 53°34' E 006°21'1 0.7
2019-Apr-16 20:00N 53°34' E 006°19'2 4.4
2019-Apr-16 19:29N 53°35' E 006°23'13 2.9
2019-Apr-16 14:57N 53°32' E 006°44'4 9.5
2019-Apr-16 14:30N 53°29' E 006°50'2 3.4
2019-Apr-16 14:00N 53°27' E 006°49'0 0.0
2019-Apr-16 13:28N 53°27' E 006°49'0 0.0
2019-Apr-16 12:58N 53°27' E 006°49'0 0.0
2019-Apr-16 12:28N 53°27' E 006°49'0 0.0
2019-Apr-16 11:58N 53°27' E 006°49'0 0.0
2019-Apr-16 11:20N 53°27' E 006°49'0 0.0
2019-Apr-16 10:59N 53°27' E 006°49'0 0.0
2019-Apr-16 10:27N 53°27' E 006°49'0 0.0
2019-Apr-16 10:00N 53°27' E 006°49'0 0.0
2019-Apr-16 09:30N 53°27' E 006°49'0 0.0
2019-Apr-16 09:00N 53°27' E 006°49'0 0.0
2019-Apr-16 08:28N 53°27' E 006°49'0 0.0
2019-Apr-16 07:58N 53°27' E 006°49'0 0.0
2019-Apr-16 07:28N 53°27' E 006°49'0 0.0
2019-Apr-16 06:56N 53°27' E 006°49'0 0.0
2019-Apr-16 06:29N 53°27' E 006°49'  
2019-Apr-12 18:36N 53°34' E 005°50'1 0.7
2019-Apr-12 17:28N 53°33' E 005°51'112 9.5
2019-Apr-12 05:39N 51°53' E 004°27'113 2.3
2019-Apr-10 03:53N 53°33' E 005°54'2 4.0
2019-Apr-10 03:18N 53°32' E 005°50'1 3.9
2019-Apr-10 03:00N 53°32' E 005°48'3 3.6
2019-Apr-10 02:02N 53°31' E 005°43'0 4.2
2019-Apr-10 02:00N 53°31' E 005°43'3 4.6
2019-Apr-10 01:23N 53°32' E 005°47'0 0.6
2019-Apr-10 00:51N 53°32' E 005°48'33 3.7
2019-Apr-09 15:57N 53°32' E 006°43'511.6
2019-Apr-09 15:30N 53°29' E 006°50'2 3.4
2019-Apr-09 14:59N 53°27' E 006°49'0 0.0
2019-Apr-09 14:22N 53°27' E 006°49'0 0.0
2019-Apr-09 13:08N 53°27' E 006°49'0 0.0
2019-Apr-09 12:50N 53°27' E 006°49'0 0.0
2019-Apr-09 11:57N 53°27' E 006°49'0 0.0
2019-Apr-09 11:30N 53°27' E 006°49'0 0.0
2019-Apr-09 10:57N 53°27' E 006°49'0 0.0
2019-Apr-09 09:46N 53°27' E 006°49'0 0.0
2019-Apr-09 09:25N 53°27' E 006°49'0 0.0
2019-Apr-09 08:35N 53°27' E 006°49'0 0.0
2019-Apr-09 08:11N 53°27' E 006°49'0 0.0
2019-Apr-09 07:59N 53°27' E 006°49'0 0.0
2019-Apr-09 07:27N 53°27' E 006°49'0 0.0
2019-Apr-09 06:42N 53°27' E 006°49'0 0.0
2019-Apr-09 06:30N 53°27' E 006°49'0 0.0
2019-Apr-09 06:00N 53°27' E 006°49'1 1.8
2019-Apr-09 05:30N 53°28' E 006°50'3 6.2
2019-Apr-09 05:00N 53°30' E 006°48'27 4.0
2019-Apr-08 22:10N 53°35' E 006°02'7 3.4
2019-Apr-08 20:00N 53°32' E 005°51'2 4.3
2019-Apr-08 19:30N 53°32' E 005°47'3 4.3
2019-Apr-08 18:49N 53°31' E 005°43'0 1.3
2019-Apr-08 18:26N 53°31' E 005°43'3 4.2
2019-Apr-08 17:45N 53°32' E 005°48'5 0.8
2019-Apr-08 12:20N 53°31' E 005°41'4 2.3
2019-Apr-08 10:26N 53°35' E 005°44'0 0.4
2019-Apr-08 09:23N 53°35' E 005°44'0 0.0
2019-Apr-08 09:00N 53°35' E 005°44'1 1.6
2019-Apr-08 08:30N 53°35' E 005°45'  

Dump ship's entire track history